Citrus Springs, Florida
Current Conditions -  °F | °C
As of 1:35 AM on Wednesday 26 Nov 2014 (Local Time) from KCGC Reporting Station
Drizzle Drizzle  
Wind Chill: 64°   Ceiling: 400
Heat Index: 64°   Visibility: 3mi
Dew Point: 63°   Wind: 3mph
Humidity: 94%   Direction: 300°WNW
Pressure: 29.87"   Gusts: NA
Location:  29.0044°N, 82.4503°W
Report Text: KCGC 260635Z AUTO 30003KT 3SM +DZ OVC004 18/17 A2987 RMK AO2 P0001
Loading
Personal Weather Stations






























Interactive Weather Map New forecast layout! Learn more

10-Day Weather Forecast

Advertisements
Track Severe Weather on mobile